Ou Mun — CRVF9 — position and weather

sailwx.info

Track history (hours):
 
Tides and Currents Weather Stations Pressure Air Temp Water Temp Dewpoint Dewpoint Depression Visibility Wind Speed Wind Dir Waves Ship Positions

Ou Mun

Last reported at 2017-Jun-10 04:04 UTC. Time now 2017-Dec-13 20:45 UTC.
Position N 38°35' E 017°58'.
Warning: this ship's position is months out of date.

Length 13 m.

Type: Sailing vessel. MMSI: 263900172.

Date/timePositionNaut miles runAvg speedWind from/ knotsBaromVisibWave heightAir tempDewpointWater temp
2017-Jun-10 04:04N 38°35' E 017°58'0 5.3
2017-Jun-10 04:00N 38°35' E 017°58'116 5.4
2017-Jun-09 06:38N 38°01' E 015°37'1 4.8
2017-Jun-09 06:25N 38°02' E 015°37'10 0.6
2017-Jun-08 13:07N 38°12' E 015°36'1 2.6
2017-Jun-08 12:53N 38°11' E 015°36'1 3.0
2017-Jun-08 12:28N 38°10' E 015°37'1 2.1
2017-Jun-08 11:54N 38°09' E 015°38'1 1.6
2017-Jun-08 11:30N 38°09' E 015°38'1 1.2
2017-Jun-08 10:32N 38°08' E 015°39'0 1.0
2017-Jun-08 10:26N 38°08' E 015°39'3 4.6
2017-Jun-08 09:53N 38°09' E 015°36'11 0.4
2017-Jun-07 03:31N 38°20' E 015°33'1 4.1
2017-Jun-07 03:24N 38°20' E 015°32'2 4.0
2017-Jun-07 03:00N 38°20' E 015°30'2 4.0
2017-Jun-07 02:29N 38°19' E 015°27'2 3.9
2017-Jun-07 02:00N 38°19' E 015°25'2 3.7
2017-Jun-07 01:29N 38°19' E 015°23'2 3.8
2017-Jun-07 00:58N 38°18' E 015°20'2 3.9
2017-Jun-07 00:29N 38°18' E 015°18'2 4.1
2017-Jun-06 23:55N 38°18' E 015°15'2 3.9
2017-Jun-06 23:28N 38°18' E 015°12'2 3.8
2017-Jun-06 22:59N 38°18' E 015°10'73 3.8
2017-Jun-06 03:49N 38°15' E 013°38'1 4.3
2017-Jun-06 03:29N 38°15' E 013°36'2 4.2
2017-Jun-06 03:00N 38°15' E 013°33'2 4.4
2017-Jun-06 02:30N 38°15' E 013°30'2 4.8
2017-Jun-06 01:59N 38°15' E 013°27'2 4.5
2017-Jun-06 01:30N 38°16' E 013°25'2 4.9
2017-Jun-06 01:00N 38°16' E 013°21'2 4.8
2017-Jun-06 00:30N 38°16' E 013°18'2 4.9
2017-Jun-06 00:00N 38°16' E 013°15'3 4.9
2017-Jun-05 23:29N 38°17' E 013°12'2 4.9
2017-Jun-05 23:01N 38°17' E 013°09'3 5.0
2017-Jun-05 22:31N 38°18' E 013°06'37 4.7
2017-Jun-05 14:33N 38°32' E 012°22'2 4.9
2017-Jun-05 14:14N 38°33' E 012°20'76 4.4
2017-Jun-04 21:01N 38°48' E 010°45'28 5.2
2017-Jun-04 15:39N 38°55' E 010°11'1 5.7
2017-Jun-04 15:27N 38°55' E 010°09'44 1.6
2017-Jun-03 12:35N 39°09' E 009°16'1 4.4
2017-Jun-03 12:27N 39°09' E 009°15'2 4.3
2017-Jun-03 12:00N 39°10' E 009°13'2 4.6
2017-Jun-03 11:29N 39°10' E 009°10'2 3.9
2017-Jun-03 11:00N 39°11' E 009°07'1 2.3
2017-Jun-03 10:30N 39°12' E 009°07'1 2.0
2017-Jun-03 10:00N 39°13' E 009°06'1 1.3
2017-Jun-03 09:29N 39°12' E 009°07'  
Track history (hours):
 
Tides and Currents Weather Stations Pressure Air Temp Water Temp Dewpoint Dewpoint Depression Visibility Wind Speed Wind Dir Waves Ship Positions

Ou Mun

Last reported at 2017-Jun-10 04:04 UTC. Time now 2017-Dec-13 20:45 UTC.
Position N 38°35' E 017°58'.
Warning: this ship's position is months out of date.

Length 13 m.

Type: Sailing vessel. MMSI: 263900172.

Date/timePositionNaut miles runAvg speedWind from/ knotsBaromVisibWave heightAir tempDewpointWater temp
2017-Jun-10 04:04N 38°35' E 017°58'0 5.3
2017-Jun-10 04:00N 38°35' E 017°58'116 5.4
2017-Jun-09 06:38N 38°01' E 015°37'1 4.8
2017-Jun-09 06:25N 38°02' E 015°37'10 0.6
2017-Jun-08 13:07N 38°12' E 015°36'1 2.6
2017-Jun-08 12:53N 38°11' E 015°36'1 3.0
2017-Jun-08 12:28N 38°10' E 015°37'1 2.1
2017-Jun-08 11:54N 38°09' E 015°38'1 1.6
2017-Jun-08 11:30N 38°09' E 015°38'1 1.2
2017-Jun-08 10:32N 38°08' E 015°39'0 1.0
2017-Jun-08 10:26N 38°08' E 015°39'3 4.6
2017-Jun-08 09:53N 38°09' E 015°36'11 0.4
2017-Jun-07 03:31N 38°20' E 015°33'1 4.1
2017-Jun-07 03:24N 38°20' E 015°32'2 4.0
2017-Jun-07 03:00N 38°20' E 015°30'2 4.0
2017-Jun-07 02:29N 38°19' E 015°27'2 3.9
2017-Jun-07 02:00N 38°19' E 015°25'2 3.7
2017-Jun-07 01:29N 38°19' E 015°23'2 3.8
2017-Jun-07 00:58N 38°18' E 015°20'2 3.9
2017-Jun-07 00:29N 38°18' E 015°18'2 4.1
2017-Jun-06 23:55N 38°18' E 015°15'2 3.9
2017-Jun-06 23:28N 38°18' E 015°12'2 3.8
2017-Jun-06 22:59N 38°18' E 015°10'73 3.8
2017-Jun-06 03:49N 38°15' E 013°38'1 4.3
2017-Jun-06 03:29N 38°15' E 013°36'2 4.2
2017-Jun-06 03:00N 38°15' E 013°33'2 4.4
2017-Jun-06 02:30N 38°15' E 013°30'2 4.8
2017-Jun-06 01:59N 38°15' E 013°27'2 4.5
2017-Jun-06 01:30N 38°16' E 013°25'2 4.9
2017-Jun-06 01:00N 38°16' E 013°21'2 4.8
2017-Jun-06 00:30N 38°16' E 013°18'2 4.9
2017-Jun-06 00:00N 38°16' E 013°15'3 4.9
2017-Jun-05 23:29N 38°17' E 013°12'2 4.9
2017-Jun-05 23:01N 38°17' E 013°09'3 5.0
2017-Jun-05 22:31N 38°18' E 013°06'37 4.7
2017-Jun-05 14:33N 38°32' E 012°22'2 4.9
2017-Jun-05 14:14N 38°33' E 012°20'76 4.4
2017-Jun-04 21:01N 38°48' E 010°45'28 5.2
2017-Jun-04 15:39N 38°55' E 010°11'1 5.7
2017-Jun-04 15:27N 38°55' E 010°09'44 1.6
2017-Jun-03 12:35N 39°09' E 009°16'1 4.4
2017-Jun-03 12:27N 39°09' E 009°15'2 4.3
2017-Jun-03 12:00N 39°10' E 009°13'2 4.6
2017-Jun-03 11:29N 39°10' E 009°10'2 3.9
2017-Jun-03 11:00N 39°11' E 009°07'1 2.3
2017-Jun-03 10:30N 39°12' E 009°07'1 2.0
2017-Jun-03 10:00N 39°13' E 009°06'1 1.3
2017-Jun-03 09:29N 39°12' E 009°07'  

Dump ship's entire track history